createdAt,value
2018-12-14T11:15:28.631Z,4.8
2018-12-14T11:15:40.625Z,4.7
2018-12-14T11:15:50.744Z,4.6
2018-12-14T11:16:00.458Z,4.6
2018-12-14T11:16:11.249Z,4.6
2018-12-14T11:16:22.726Z,4.9
2018-12-14T11:16:46.246Z,4.3
2018-12-14T11:16:56.706Z,4.6
2018-12-14T11:17:19.307Z,4.5
2018-12-14T11:17:28.215Z,4.6
2018-12-14T11:17:37.565Z,4.6
2018-12-14T11:17:46.302Z,4.5
2018-12-14T11:17:55.425Z,4.6
2018-12-14T11:18:04.261Z,4.7
2018-12-14T11:18:13.380Z,4.9
2018-12-14T11:18:23.521Z,5.1
2018-12-14T11:18:32.509Z,4.9
2018-12-14T11:18:41.701Z,5
2018-12-14T11:19:20.865Z,4.5
2018-12-14T11:19:30.200Z,4.6
2018-12-14T11:19:39.124Z,4.9
2018-12-14T11:19:48.604Z,4.9
2018-12-14T11:19:58.430Z,5.1
2018-12-14T11:20:09.824Z,4.9
2018-12-14T11:20:20.461Z,4.7
2018-12-14T11:20:31.070Z,4.6
2018-12-14T11:20:40.940Z,4.6
2018-12-14T11:20:50.944Z,4.5
2018-12-14T11:21:02.110Z,4.4
2018-12-14T11:21:42.050Z,4.6
2018-12-14T11:21:52.661Z,4.8
2018-12-14T11:22:04.846Z,4.7
2018-12-14T11:22:16.561Z,4.8
2018-12-14T11:22:27.539Z,4.7
2018-12-14T11:22:40.640Z,4.8
2018-12-14T11:22:53.086Z,5.2
2018-12-14T11:23:04.601Z,5.1
2018-12-14T11:23:16.584Z,5
2018-12-14T11:23:29.543Z,5.1
2018-12-14T11:23:46.610Z,4.9
2018-12-14T11:24:00.380Z,4.8
2018-12-14T11:24:12.465Z,4.7
2018-12-14T11:24:26.582Z,4.8
2018-12-14T11:24:39.246Z,4.7
2018-12-14T11:24:55.163Z,4.6
2018-12-14T11:25:10.523Z,4.8
2018-12-14T11:25:23.803Z,4.9
2018-12-14T11:25:37.304Z,4.8
2018-12-14T11:25:52.805Z,4.7
2018-12-14T11:31:21.511Z,3.5
2018-12-14T11:31:34.621Z,3.6
2018-12-14T11:31:46.407Z,3.8
2018-12-14T11:31:57.380Z,3.7
2018-12-14T11:32:07.964Z,3.8
2018-12-14T11:32:19.581Z,4
2018-12-14T11:32:31.124Z,3.9
2018-12-14T11:32:42.408Z,3.7
2018-12-14T11:32:53.446Z,3.7
2018-12-14T11:33:05.869Z,3.7
2018-12-14T11:33:17.709Z,3.8
2018-12-14T11:33:29.643Z,3.9
2018-12-14T11:33:40.806Z,4
2018-12-14T11:33:51.916Z,3.7
2018-12-14T11:34:04.861Z,3.7
2018-12-14T11:34:18.901Z,3.7
2018-12-14T11:34:32.820Z,3.8
2018-12-14T11:34:44.244Z,3.7
2018-12-14T11:34:56.263Z,3.7
2018-12-14T11:35:08.777Z,4.1
2018-12-14T11:35:19.434Z,4
2018-12-14T11:35:32.882Z,3.9
2018-12-14T11:35:43.944Z,3.8
2018-12-14T11:35:55.425Z,3.7
2018-12-14T11:36:07.100Z,3.7
2018-12-14T11:36:19.504Z,3.9
2018-12-14T11:36:30.887Z,3.9
2018-12-14T11:36:43.447Z,3.8
2018-12-14T11:36:56.725Z,3.8
2018-12-14T11:37:09.024Z,3.8
2018-12-14T11:37:22.141Z,3.7
2018-12-14T11:37:33.101Z,3.7
2018-12-14T11:37:44.722Z,3.6
2018-12-14T11:37:55.519Z,3.6
2018-12-14T11:38:08.543Z,3.9
2018-12-14T11:38:19.085Z,3.7
2018-12-14T11:38:32.544Z,3.6
2018-12-14T11:38:44.507Z,3.7
2018-12-14T11:38:57.146Z,3.9
2018-12-14T11:39:08.682Z,3.9
2018-12-14T11:39:21.440Z,3.8
2018-12-14T11:39:33.624Z,3.7
2018-12-14T11:39:44.545Z,3.6
2018-12-14T11:39:55.063Z,3.6
2018-12-14T11:40:06.441Z,3.6
2018-12-14T11:40:19.258Z,3.3
2018-12-14T11:40:30.688Z,3.3
2018-12-14T11:40:41.932Z,3.3
2018-12-14T11:40:53.922Z,3.5
2018-12-14T11:41:05.081Z,3.7
2018-12-14T11:41:18.750Z,3.8
2018-12-14T11:41:32.145Z,3.8
2018-12-14T11:41:46.399Z,3.6
2018-12-14T11:41:58.821Z,3.6
2018-12-14T11:42:15.318Z,3.6
2018-12-14T11:42:28.971Z,3.5
2018-12-14T11:42:41.303Z,3.5
2018-12-14T11:42:53.410Z,3.6
2018-12-14T11:43:05.165Z,3.7
2018-12-14T11:43:15.946Z,3.7
2018-12-14T11:43:26.988Z,3.7
2018-12-14T11:43:38.151Z,3.5
2018-12-14T11:43:48.616Z,3.5
2018-12-14T11:43:59.801Z,3.5
2018-12-14T11:44:10.484Z,3.5
2018-12-14T11:44:24.529Z,3.5
2018-12-14T11:44:35.923Z,3.5
2018-12-14T11:44:48.022Z,3.6
2018-12-14T11:44:59.683Z,3.6
2018-12-14T11:45:10.221Z,3.7
2018-12-14T11:45:20.802Z,3.7
2018-12-14T11:45:31.261Z,3.8
2018-12-14T11:45:42.547Z,3.6
2018-12-14T11:45:52.938Z,3.7
2018-12-14T11:46:05.012Z,3.7
2018-12-14T11:46:16.725Z,3.5
2018-12-14T11:48:09.859Z,3.4
2018-12-14T11:48:20.284Z,3.5
2018-12-14T11:48:28.053Z,3.7
2018-12-14T11:48:35.871Z,3.9
2018-12-14T11:48:43.687Z,3.8
2018-12-14T11:48:52.434Z,3.8
2018-12-14T11:49:00.213Z,3.7
2018-12-14T11:49:09.432Z,3.8
2018-12-14T11:49:17.608Z,3.7
2018-12-14T11:49:25.641Z,3.7
2018-12-14T11:49:35.404Z,3.7
2018-12-14T11:49:43.379Z,3.8
2018-12-14T11:49:53.715Z,3.7
2018-12-14T11:50:02.188Z,3.7
2018-12-14T11:50:10.494Z,3.6
2018-12-14T11:50:19.021Z,3.5
2018-12-14T11:50:26.993Z,3.5
2018-12-14T11:50:34.742Z,3.5
2018-12-14T11:50:42.572Z,3.7
2018-12-14T11:50:50.545Z,3.8
2018-12-14T11:51:00.776Z,3.7
2018-12-14T11:51:09.235Z,3.7
2018-12-14T11:51:17.509Z,3.7
2018-12-14T11:51:25.438Z,3.7
2018-12-14T11:51:34.060Z,3.6
2018-12-14T11:51:43.066Z,3.7
2018-12-14T11:51:51.005Z,3.6
2018-12-14T11:51:59.089Z,3.6
2018-12-14T11:52:07.038Z,3.5
2018-12-14T11:52:14.894Z,3.6
2018-12-14T11:52:22.830Z,3.6
2018-12-14T11:52:30.642Z,3.7
2018-12-14T11:52:38.544Z,3.7
2018-12-14T11:52:46.373Z,3.5
2018-12-14T11:52:54.278Z,3.5
2018-12-14T11:53:02.086Z,3.6
2018-12-14T11:53:10.176Z,3.7
2018-12-14T11:53:18.125Z,3.7
2018-12-14T11:53:25.958Z,3.7
2018-12-14T11:53:34.787Z,3.7
2018-12-14T11:53:42.741Z,3.8
2018-12-14T11:53:50.532Z,3.4
2018-12-14T11:53:58.492Z,3.6
2018-12-14T11:54:06.377Z,3.7
2018-12-14T11:54:14.172Z,3.7
2018-12-14T11:54:23.069Z,3.7
2018-12-14T11:54:31.142Z,3.7
2018-12-14T11:54:38.998Z,3.7
2018-12-14T11:54:46.977Z,3.5
2018-12-14T11:54:54.861Z,3.6
2018-12-14T11:55:02.730Z,3.5
2018-12-14T11:55:10.591Z,3.4
2018-12-14T11:55:18.470Z,3.5
2018-12-14T11:55:26.356Z,3.6
2018-12-14T11:55:34.236Z,3.7
2018-12-14T11:55:43.056Z,4
2018-12-14T11:55:50.945Z,3.9
2018-12-14T11:55:59.851Z,3.8
2018-12-14T11:56:19.901Z,3.7
2018-12-14T11:56:27.760Z,3.5
2018-12-14T11:56:35.701Z,3.4
2018-12-14T11:56:43.499Z,3.4
2018-12-14T11:56:51.494Z,3.7
2018-12-14T11:56:59.583Z,3.5
2018-12-14T11:57:07.499Z,3.6
2018-12-14T11:57:15.370Z,3.5
2018-12-14T11:57:23.381Z,3.6
2018-12-14T11:57:31.271Z,3.6
2018-12-14T11:57:39.278Z,3.5
2018-12-14T11:57:47.247Z,3.3
2018-12-14T11:57:56.134Z,3.4
2018-12-14T11:58:04.065Z,3.4
2018-12-14T11:58:12.047Z,3.6
2018-12-14T11:58:19.855Z,3.8
2018-12-14T11:58:27.669Z,3.7
2018-12-14T11:58:35.533Z,3.7
2018-12-14T11:58:43.421Z,3.5
2018-12-14T11:58:51.278Z,3.4
2018-12-14T11:58:59.242Z,3.5
2018-12-14T11:59:07.099Z,3.6
2018-12-14T11:59:14.988Z,3.5
2018-12-14T11:59:22.911Z,3.4
2018-12-14T11:59:31.813Z,3.5
2018-12-14T11:59:39.812Z,3.5
2018-12-14T11:59:47.714Z,3.6
2018-12-14T11:59:55.638Z,3.7
2018-12-14T12:00:03.627Z,3.4
2018-12-14T12:00:11.421Z,3.3
2018-12-14T12:00:19.346Z,3.1
2018-12-14T12:00:27.207Z,3.2
2018-12-14T12:00:35.002Z,3.4
2018-12-14T12:00:42.881Z,3.3
2018-12-14T12:00:50.821Z,3.3
2018-12-14T12:00:58.686Z,3.3
2018-12-14T12:01:06.582Z,3.3
2018-12-14T12:01:14.458Z,3.4
2018-12-14T12:01:22.405Z,3.3
2018-12-14T12:01:31.326Z,3.4
2018-12-14T12:01:39.288Z,3.5
2018-12-14T12:01:48.178Z,3.5
2018-12-14T12:01:56.102Z,3.4
2018-12-14T12:02:04.030Z,3.4
2018-12-14T12:02:12.708Z,3.3
2018-12-14T12:02:19.876Z,3.3
2018-12-14T12:02:27.731Z,3.4
2018-12-14T12:02:35.557Z,3.4
2018-12-14T12:02:46.387Z,3.7
2018-12-14T12:02:54.236Z,3.8
2018-12-14T12:03:02.061Z,3.6
2018-12-14T12:03:09.977Z,3.5
2018-12-14T12:03:17.824Z,3.4
2018-12-14T12:03:25.701Z,3.4
2018-12-14T12:03:34.650Z,3.6
2018-12-14T12:06:53.596Z,3.4
2018-12-14T12:07:01.479Z,3.6
2018-12-14T12:07:09.329Z,3.7
2018-12-14T12:07:17.324Z,3.7
2018-12-14T12:07:25.206Z,3.8
2018-12-14T12:07:34.174Z,3.6
2018-12-14T12:07:42.080Z,3.6
2018-12-14T12:07:51.873Z,3.6
2018-12-14T12:07:59.733Z,3.4
2018-12-14T12:08:08.592Z,3.5
2018-12-14T12:08:16.550Z,3.5
2018-12-14T12:08:25.484Z,3.5
2018-12-14T12:08:33.304Z,3.7
2018-12-14T12:08:41.244Z,3.6
2018-12-14T12:08:49.113Z,3.4
2018-12-14T12:08:56.934Z,3.5
2018-12-14T12:09:04.842Z,3.4
2018-12-14T12:09:12.753Z,3.4
2018-12-14T12:09:20.613Z,3.7
2018-12-14T12:09:28.815Z,3.6
2018-12-14T12:09:37.814Z,3.6
2018-12-14T12:09:47.458Z,3.5
2018-12-14T12:09:55.433Z,3.2
2018-12-14T12:10:03.306Z,3.1
2018-12-14T12:10:13.247Z,3.2
2018-12-14T12:10:20.271Z,3.2
2018-12-14T12:10:28.282Z,3.2
2018-12-14T12:10:36.207Z,3.2
2018-12-14T12:10:44.215Z,3.4
2018-12-14T12:10:52.199Z,3.6
2018-12-14T12:11:00.047Z,3.6
2018-12-14T12:11:08.814Z,3.5
2018-12-14T12:11:16.658Z,3.4
2018-12-14T12:11:24.514Z,3.4
2018-12-14T12:11:32.377Z,3
2018-12-14T12:11:40.286Z,3
2018-12-14T12:11:48.231Z,2.7
2018-12-14T12:11:56.122Z,2.7
2018-12-14T12:12:03.943Z,2.8
2018-12-14T12:12:12.865Z,2.8
2018-12-14T12:12:20.682Z,2.9
2018-12-14T12:12:28.565Z,3
2018-12-14T12:12:36.460Z,3.2
2018-12-14T12:12:44.450Z,3
2018-12-14T12:12:52.313Z,2.9
2018-12-14T12:13:00.190Z,2.8
2018-12-14T12:13:08.088Z,2.6
2018-12-14T12:13:16.087Z,2.7
2018-12-14T12:13:23.962Z,2.7
2018-12-14T12:13:33.038Z,2.8
2018-12-14T12:13:41.032Z,3
2018-12-14T12:13:49.828Z,3
2018-12-14T12:13:57.848Z,3.1
2018-12-14T12:14:06.175Z,2.8
2018-12-14T12:14:14.102Z,2.8
2018-12-14T12:14:26.875Z,2.6
2018-12-14T12:14:33.169Z,2.5
2018-12-14T12:14:41.259Z,2.6
2018-12-14T12:14:49.470Z,2.3
2018-12-14T12:14:57.690Z,2.6
2018-12-14T12:15:05.926Z,2.7
2018-12-14T12:15:15.075Z,2.7
2018-12-14T12:15:23.376Z,3
2018-12-14T12:15:31.575Z,2.8
2018-12-14T12:15:39.444Z,2.9
2018-12-14T12:15:47.403Z,2.9
2018-12-14T12:15:55.315Z,2.7
2018-12-14T12:16:03.261Z,2.6
2018-12-14T12:16:11.152Z,2.7
2018-12-14T12:16:19.169Z,2.9
2018-12-14T12:16:27.226Z,2.8
2018-12-14T12:16:35.407Z,2.7
2018-12-14T12:16:43.341Z,2.7
2018-12-14T12:16:51.399Z,2.7
2018-12-14T12:16:59.309Z,2.5
2018-12-14T12:17:07.245Z,2.6
2018-12-14T12:17:15.244Z,2.4
2018-12-14T12:17:23.218Z,2.5
2018-12-14T12:17:31.283Z,2.7
2018-12-14T12:17:39.565Z,3
2018-12-14T12:17:50.475Z,2.8
2018-12-14T12:17:59.287Z,2.7
2018-12-14T12:18:07.301Z,2.5
2018-12-14T12:18:16.322Z,2.9
2018-12-14T12:18:25.325Z,3.3
2018-12-14T12:18:36.724Z,3.4
2018-12-14T12:18:47.383Z,3.2
2018-12-14T12:18:57.022Z,2.8
2018-12-14T12:19:04.910Z,2.6
2018-12-14T12:19:14.717Z,2.6
2018-12-14T12:19:22.691Z,2.5
2018-12-14T12:19:30.630Z,2.7
2018-12-14T12:19:38.480Z,2.8
2018-12-14T12:19:46.495Z,2.8
2018-12-14T12:19:54.424Z,2.8
2018-12-14T12:20:02.425Z,2.8
2018-12-14T12:20:10.294Z,2.8
2018-12-14T12:20:18.498Z,2.7
2018-12-14T12:20:26.404Z,2.8
2018-12-14T12:20:34.413Z,2.9
2018-12-14T12:20:42.498Z,2.9
2018-12-14T12:20:50.400Z,2.8
2018-12-14T12:21:00.325Z,2.7
2018-12-14T12:21:09.193Z,2.6
2018-12-14T12:21:16.991Z,2.5
2018-12-14T12:21:24.999Z,2.3
2018-12-14T12:21:32.980Z,2.3
2018-12-14T12:21:40.912Z,2.5
2018-12-14T12:21:49.018Z,2.4
2018-12-14T12:21:57.041Z,2.6
2018-12-14T12:22:05.793Z,2.8
2018-12-14T12:22:15.669Z,2.7
2018-12-14T12:22:23.558Z,2.8
2018-12-14T12:22:32.479Z,2.6
2018-12-14T12:22:40.358Z,2.5
2018-12-14T12:22:48.320Z,2.5
2018-12-14T12:22:56.298Z,2.6
2018-12-14T12:23:04.303Z,2.6
2018-12-14T12:23:12.318Z,2.7
2018-12-14T12:23:21.228Z,2.7
2018-12-14T12:23:29.259Z,2.8
2018-12-14T12:23:37.158Z,2.8
2018-12-14T12:23:45.113Z,2.6
2018-12-14T12:23:55.911Z,2.6
2018-12-14T12:24:03.863Z,2.5
2018-12-14T12:24:11.949Z,2.6
2018-12-14T12:24:19.877Z,2.6
2018-12-14T12:24:27.746Z,2.5
2018-12-14T12:24:35.603Z,2.5
2018-12-14T12:24:44.532Z,2.5
2018-12-14T12:24:52.432Z,2.5
2018-12-14T12:25:00.445Z,2.5
2018-12-14T12:25:08.357Z,2.6
2018-12-14T12:25:16.280Z,2.5
2018-12-14T12:25:24.189Z,2.4
2018-12-14T12:25:32.131Z,2.5
2018-12-14T12:25:39.990Z,2.6
2018-12-14T12:25:48.234Z,2.6
2018-12-14T12:25:56.115Z,2.7
2018-12-14T12:26:04.202Z,2.7
2018-12-14T12:26:12.109Z,2.7
2018-12-14T12:26:19.945Z,2.6
2018-12-14T12:26:27.849Z,2.9
2018-12-14T12:26:35.750Z,2.8
2018-12-14T12:26:43.608Z,3
2018-12-14T12:26:51.464Z,3
2018-12-14T12:26:59.417Z,2.8
2018-12-14T12:27:07.275Z,2.8
2018-12-14T12:27:15.275Z,2.8
2018-12-14T12:27:23.244Z,2.9
2018-12-14T12:27:31.095Z,2.9
2018-12-14T12:27:39.786Z,2.7
2018-12-14T12:27:47.746Z,2.7
2018-12-14T12:27:55.736Z,2.5
2018-12-14T12:28:03.625Z,2.6
2018-12-14T12:28:11.587Z,2.6
2018-12-14T12:28:19.556Z,2.6
2018-12-14T12:28:27.425Z,2.7
2018-12-14T12:28:35.218Z,2.8
2018-12-14T12:28:43.066Z,2.7
2018-12-14T12:28:52.148Z,2.6
2018-12-14T12:29:01.086Z,2.4
2018-12-14T12:29:09.158Z,2.5
2018-12-14T12:29:17.112Z,2.7
2018-12-14T12:29:25.038Z,2.6
2018-12-14T12:29:32.839Z,2.6
2018-12-14T12:29:40.723Z,2.5
2018-12-14T12:29:49.614Z,3.4
2018-12-14T12:29:58.513Z,6.3
2018-12-14T12:30:06.397Z,8.8
2018-12-14T12:30:14.409Z,10.9
2018-12-14T12:30:22.473Z,11.4
2018-12-14T12:30:30.327Z,11.6
2018-12-14T12:30:38.233Z,11.6
2018-12-14T12:30:46.095Z,11.9
2018-12-14T12:30:54.925Z,11.6
2018-12-14T12:31:02.880Z,11.5
2018-12-14T12:31:11.860Z,11.8
2018-12-14T12:31:20.202Z,12
2018-12-14T12:31:28.205Z,11.9
2018-12-14T12:31:36.204Z,11.1
2018-12-14T12:31:44.075Z,9.7
2018-12-14T12:31:51.958Z,8.5
2018-12-14T12:32:00.783Z,7.5
2018-12-14T12:32:08.783Z,7.6
2018-12-14T12:32:16.643Z,7.5
2018-12-14T12:32:24.546Z,7
2018-12-14T12:32:32.515Z,6.9
2018-12-14T12:32:40.520Z,6.6
2018-12-14T12:32:49.435Z,6.3
2018-12-14T12:32:57.262Z,6.3
2018-12-14T12:33:05.254Z,6
2018-12-14T12:33:13.197Z,6
2018-12-14T12:33:22.157Z,5.8
2018-12-14T12:33:29.982Z,5.7
2018-12-14T12:33:37.842Z,5.5
2018-12-14T12:33:45.711Z,5.8
2018-12-14T12:33:53.580Z,5.5
2018-12-14T12:34:01.509Z,5.6
2018-12-14T12:34:10.385Z,5.4
2018-12-14T12:34:18.192Z,5.3
2018-12-14T12:34:26.181Z,5.5
2018-12-14T12:34:33.997Z,5.6
2018-12-14T12:34:41.820Z,5.4
2018-12-14T12:34:49.724Z,5.3
2018-12-14T12:34:58.543Z,5.1
2018-12-14T12:35:06.408Z,5
2018-12-14T12:35:14.239Z,5
2018-12-14T12:35:22.184Z,5
2018-12-14T12:35:30.082Z,5.2
2018-12-14T12:35:37.851Z,5.1
2018-12-14T12:35:46.707Z,5.2
2018-12-14T12:35:55.556Z,4.9
2018-12-14T12:36:03.475Z,4.7
2018-12-14T12:36:11.347Z,4.7
2018-12-14T12:36:19.272Z,4.5
2018-12-14T12:36:27.194Z,4.7
2018-12-14T12:36:35.210Z,4.6
2018-12-14T12:36:43.186Z,5.3
2018-12-14T12:36:50.980Z,5
2018-12-14T12:36:58.851Z,5.2
2018-12-14T12:37:07.637Z,5.3
2018-12-14T12:37:15.479Z,5
2018-12-14T12:37:23.290Z,5
2018-12-14T12:37:31.313Z,4.9
2018-12-14T12:37:39.232Z,4.8
2018-12-14T12:37:47.057Z,4.5
2018-12-14T12:37:55.093Z,4.6
2018-12-14T12:38:03.006Z,4.5
2018-12-14T12:38:11.850Z,4.4
2018-12-14T12:38:19.776Z,4.4
2018-12-14T12:38:46.478Z,4.6
2018-12-14T12:38:54.440Z,4.2
2018-12-14T12:39:02.271Z,4
2018-12-14T12:39:11.099Z,4.1
2018-12-14T12:39:19.021Z,4.1
2018-12-14T12:39:26.838Z,4.2
2018-12-14T12:39:34.701Z,4.2
2018-12-14T12:39:42.615Z,4.1
2018-12-14T12:39:50.454Z,4.3
2018-12-14T12:39:58.331Z,4.1
2018-12-14T12:40:06.239Z,4.1
2018-12-14T12:40:15.957Z,4.3
2018-12-14T12:40:24.784Z,4.1
2018-12-14T12:40:32.754Z,4
2018-12-14T12:40:41.266Z,4.5
2018-12-14T12:40:49.125Z,4.5
2018-12-14T12:40:56.937Z,4.5
2018-12-14T12:41:06.143Z,4.3
2018-12-14T12:41:14.930Z,3.7
2018-12-14T12:41:22.930Z,3.9
2018-12-14T12:41:32.721Z,3.7
2018-12-14T12:41:41.385Z,3.7
2018-12-14T12:41:49.362Z,3.6
2018-12-14T12:41:57.454Z,3.4
2018-12-14T12:42:05.368Z,3.4
2018-12-14T12:42:13.330Z,3.6
2018-12-14T12:42:21.295Z,3.7
2018-12-14T12:42:29.115Z,3.9
2018-12-14T12:42:36.985Z,3.9
2018-12-14T12:42:44.875Z,3.9
2018-12-14T12:42:52.898Z,3.8
2018-12-14T12:43:00.749Z,3.7
2018-12-14T12:43:09.152Z,3.9
2018-12-14T12:43:17.131Z,4
2018-12-14T12:43:25.821Z,4.1
2018-12-14T12:43:34.654Z,3.9
2018-12-14T12:43:42.832Z,3.7
2018-12-14T12:43:50.729Z,3.7
2018-12-14T12:43:58.609Z,4
2018-12-14T12:44:06.497Z,3.8
2018-12-14T12:44:14.385Z,4
2018-12-14T12:44:22.240Z,3.9
2018-12-14T12:44:33.602Z,3.9
2018-12-14T12:44:40.887Z,3.8
2018-12-14T12:44:48.713Z,3.7
2018-12-14T12:44:56.550Z,3.6
2018-12-14T12:45:04.303Z,3.5
2018-12-14T12:45:13.158Z,3.4
2018-12-14T12:45:21.793Z,3.3
2018-12-14T12:45:29.704Z,3.4
2018-12-14T12:45:37.476Z,3.7
2018-12-14T12:45:45.362Z,3.9
2018-12-14T12:45:53.172Z,3.8
2018-12-14T12:46:00.950Z,3.9
2018-12-14T12:46:08.851Z,3.7
2018-12-14T12:46:16.725Z,3.6
2018-12-14T12:46:24.550Z,3.6
2018-12-14T12:46:32.323Z,3.4
2018-12-14T12:46:41.133Z,3.6
2018-12-14T12:46:48.972Z,3.6
2018-12-14T12:46:56.812Z,3.6
2018-12-14T12:47:04.609Z,3.7
2018-12-14T12:47:12.566Z,3.8
2018-12-14T12:47:20.371Z,3.9
2018-12-14T12:47:28.494Z,3.9
2018-12-14T12:47:36.289Z,3.8
2018-12-14T12:47:44.118Z,3.7
2018-12-14T12:47:51.954Z,3.5
2018-12-14T12:47:59.887Z,3.3
2018-12-14T12:48:07.677Z,3.3
2018-12-14T12:48:15.540Z,3.2
2018-12-14T12:48:23.393Z,3.2
2018-12-14T12:48:31.173Z,3.4
2018-12-14T12:48:39.001Z,3.4
2018-12-14T12:48:46.824Z,3.4
2018-12-14T12:48:54.675Z,3.4
2018-12-14T12:49:02.612Z,3.4
2018-12-14T12:49:10.482Z,3.2
2018-12-14T12:49:18.347Z,3.4
2018-12-14T12:49:26.267Z,3.4
2018-12-14T12:49:34.138Z,3.5
2018-12-14T12:49:42.052Z,3.5
2018-12-14T12:49:49.978Z,3.6
2018-12-14T12:49:57.826Z,3.6
2018-12-14T12:50:05.676Z,3.6
2018-12-14T12:50:14.600Z,3.6
2018-12-14T12:50:22.711Z,3.3
2018-12-14T12:50:33.423Z,3.3
2018-12-14T12:50:41.225Z,3.2
2018-12-14T12:50:49.095Z,3.6
2018-12-14T12:51:03.033Z,3.5
2018-12-14T12:51:08.658Z,3.3
2018-12-14T12:51:16.461Z,3.7
2018-12-14T12:51:24.301Z,3.4
2018-12-14T12:51:32.140Z,3.6
2018-12-14T12:51:39.968Z,3.5
2018-12-14T12:51:48.922Z,3.3
2018-12-14T12:51:56.808Z,3.2
2018-12-14T12:52:04.676Z,3.1
2018-12-14T12:52:12.475Z,3.5
2018-12-14T12:52:21.208Z,3.4
2018-12-14T12:52:29.128Z,3.4
2018-12-14T12:52:36.970Z,3.3
2018-12-14T12:52:45.857Z,3.4
2018-12-14T12:52:53.746Z,3.8
2018-12-14T12:53:01.599Z,3.8
2018-12-14T12:53:09.448Z,3.9
2018-12-14T12:53:20.067Z,3.6
2018-12-14T12:53:28.046Z,3.4
2018-12-14T12:53:35.948Z,3.1
2018-12-14T12:53:43.853Z,3.1
2018-12-14T12:53:51.735Z,3.1
2018-12-14T12:54:00.386Z,3.3
2018-12-14T12:54:08.224Z,3.3
2018-12-14T12:54:16.082Z,3.2
2018-12-14T12:54:23.963Z,3.1
2018-12-14T12:54:31.820Z,3.1
2018-12-14T12:54:39.728Z,3
2018-12-14T12:54:48.437Z,3
2018-12-14T12:54:59.219Z,2.8
2018-12-14T12:55:07.472Z,3
2018-12-14T12:55:15.340Z,3.2
2018-12-14T12:55:23.229Z,3.2
2018-12-14T12:55:31.070Z,3
2018-12-14T12:55:39.003Z,3
2018-12-14T12:55:47.038Z,2.8
2018-12-14T12:55:54.958Z,2.9
2018-12-14T12:56:02.794Z,2.9
2018-12-14T12:56:10.634Z,3.2
2018-12-14T12:56:18.439Z,3.2
2018-12-14T12:56:26.265Z,3.2
2018-12-14T12:56:34.468Z,3.3
2018-12-14T12:56:42.395Z,3.2
2018-12-14T12:56:50.226Z,3.1
2018-12-14T12:56:58.058Z,3.1
2018-12-14T12:57:05.957Z,3
2018-12-14T12:57:13.892Z,3.1
2018-12-14T12:57:22.321Z,3.2
2018-12-14T12:57:30.227Z,3.2
2018-12-14T12:57:39.087Z,3.4
2018-12-14T12:57:46.968Z,3.2
2018-12-14T12:57:54.827Z,3.3
2018-12-14T12:58:02.699Z,3.3
2018-12-14T12:58:10.571Z,3.3
2018-12-14T12:58:18.579Z,3.4
2018-12-14T12:58:27.498Z,3.2
2018-12-14T12:58:35.370Z,3.4
2018-12-14T12:58:43.494Z,3.2
2018-12-14T12:58:51.397Z,3.1
2018-12-14T12:58:59.213Z,3.1
2018-12-14T12:59:07.092Z,3
2018-12-14T12:59:15.016Z,3.1
2018-12-14T12:59:22.828Z,3.1
2018-12-14T12:59:31.635Z,3.1
2018-12-14T12:59:39.666Z,3.2
2018-12-14T12:59:47.517Z,3.3
2018-12-14T12:59:55.406Z,3.1
2018-12-14T13:00:05.821Z,3.1
2018-12-14T13:00:13.760Z,3.1
2018-12-14T13:00:21.626Z,3.1
2018-12-14T13:00:29.491Z,3.2
2018-12-14T13:00:37.686Z,3.4
2018-12-14T13:00:45.520Z,3.4
2018-12-14T13:00:53.361Z,3.4
2018-12-14T13:01:01.254Z,3.5
2018-12-14T13:01:09.037Z,3.2
2018-12-14T13:01:17.050Z,3
2018-12-14T13:01:25.005Z,3
2018-12-14T13:01:32.825Z,2.8
2018-12-14T13:01:42.450Z,2.8
2018-12-14T13:01:50.272Z,2.7
2018-12-14T13:01:58.087Z,2.6
2018-12-14T13:02:05.941Z,2.6
2018-12-14T13:02:13.794Z,2.8
2018-12-14T13:02:21.624Z,2.9
2018-12-14T13:02:29.454Z,3.1
2018-12-14T13:02:37.273Z,3.3
2018-12-14T13:02:45.143Z,3.3
2018-12-14T13:02:53.054Z,3.4
2018-12-14T13:03:00.888Z,3.4
2018-12-14T13:03:08.757Z,3.4
2018-12-14T13:03:16.773Z,3.2
2018-12-14T13:03:24.625Z,3.2
2018-12-14T13:03:32.500Z,3.1
2018-12-14T13:03:40.419Z,3.1
2018-12-14T13:03:48.318Z,3.1
2018-12-14T13:03:56.192Z,3.1
2018-12-14T13:04:05.765Z,3.3
2018-12-14T13:04:13.790Z,3.1
2018-12-14T13:04:22.541Z,3.2
2018-12-14T13:04:30.359Z,3.2
2018-12-14T13:04:38.875Z,3.1
2018-12-14T13:04:46.088Z,3.1
2018-12-14T13:04:54.939Z,2.9
2018-12-14T13:05:02.850Z,2.9
2018-12-14T13:05:10.696Z,3.9
2018-12-14T13:05:18.567Z,3.9
2018-12-14T13:05:26.483Z,4
2018-12-14T13:05:37.443Z,4.1
2018-12-14T13:05:46.951Z,3.1
2018-12-14T13:05:54.765Z,3.1
2018-12-14T13:06:03.640Z,3.3
2018-12-14T13:06:11.463Z,3.4
2018-12-14T13:06:19.267Z,3.3
2018-12-14T13:06:27.194Z,3.5
2018-12-14T13:06:36.221Z,3.4
2018-12-14T13:06:44.069Z,4.5
2018-12-14T13:06:52.923Z,4.8
2018-12-14T13:07:01.747Z,4.6
2018-12-14T13:07:09.597Z,3.2
2018-12-14T13:07:17.484Z,3.3
2018-12-14T13:07:25.371Z,3.2
2018-12-14T13:07:33.278Z,3.2
2018-12-14T13:07:41.129Z,3.1
2018-12-14T13:07:49.133Z,2.9
2018-12-14T13:07:56.982Z,2.8
2018-12-14T13:08:04.851Z,2.9
2018-12-14T13:08:19.038Z,3.1
2018-12-14T13:08:27.001Z,3.1
2018-12-14T13:08:35.002Z,3.1
2018-12-14T13:08:43.931Z,3.1
2018-12-14T13:08:52.028Z,3
2018-12-14T13:09:00.150Z,3
2018-12-14T13:09:08.478Z,3
2018-12-14T13:09:19.173Z,3.1
2018-12-14T13:09:26.993Z,3.3
2018-12-14T13:09:34.773Z,4
2018-12-14T13:09:42.641Z,3.9
2018-12-14T13:09:50.426Z,4
2018-12-14T13:09:58.379Z,4
2018-12-14T13:10:06.798Z,3.3
2018-12-14T13:10:15.641Z,3.3
2018-12-14T13:10:23.482Z,3.2
2018-12-14T13:10:31.410Z,3.2
2018-12-14T13:10:39.289Z,3
2018-12-14T13:10:47.236Z,3
2018-12-14T13:10:56.126Z,2.9
2018-12-14T13:11:03.950Z,2.9
2018-12-14T13:11:11.991Z,2.9
2018-12-14T13:11:20.689Z,3
2018-12-14T13:11:28.561Z,3.2
2018-12-14T13:11:36.436Z,3.2
2018-12-14T13:11:44.254Z,3.3
2018-12-14T13:11:53.094Z,3.2
2018-12-14T13:12:00.941Z,3.3
2018-12-14T13:12:08.786Z,3.3
2018-12-14T13:12:16.596Z,3.2
2018-12-14T13:12:24.528Z,3
2018-12-14T13:12:32.368Z,2.8
2018-12-14T13:12:40.181Z,2.9
2018-12-14T13:12:48.046Z,3.2
2018-12-14T13:12:56.026Z,3.2
2018-12-14T13:13:03.852Z,3.3
2018-12-14T13:13:11.740Z,3.3
2018-12-14T13:13:19.575Z,3.2
2018-12-14T13:13:27.341Z,3.1
2018-12-14T13:13:35.231Z,3.1
2018-12-14T13:13:43.103Z,3.2
2018-12-14T13:13:50.961Z,3.2
2018-12-14T13:13:59.017Z,3.2
2018-12-14T13:14:06.939Z,3.3
2018-12-14T13:14:14.806Z,3.1
2018-12-14T13:14:22.638Z,2.8
2018-12-14T13:14:30.485Z,2.7
2018-12-14T13:14:42.023Z,2.7
2018-12-14T13:14:50.914Z,2.9
2018-12-14T13:14:58.711Z,2.9
2018-12-14T13:15:07.544Z,2.9
2018-12-14T13:15:15.450Z,3
2018-12-14T13:15:23.359Z,2.8
2018-12-14T13:15:31.203Z,2.9
2018-12-14T13:15:39.081Z,2.9
2018-12-14T13:15:46.885Z,3
2018-12-14T13:15:55.859Z,3.1
2018-12-14T13:16:03.694Z,3.1
2018-12-14T13:16:11.510Z,3.2
2018-12-14T13:16:19.359Z,3.1
2018-12-14T13:16:27.226Z,3
2018-12-14T13:16:35.068Z,3
2018-12-14T13:16:42.949Z,2.9
2018-12-14T13:16:50.844Z,2.8
2018-12-14T13:16:58.677Z,3
2018-12-14T13:17:06.670Z,3.1
2018-12-14T13:17:14.524Z,3
2018-12-14T13:17:22.382Z,2.9
2018-12-14T13:17:30.291Z,2.6
2018-12-14T13:17:43.064Z,2.7
2018-12-14T13:17:51.058Z,2.9
2018-12-14T13:17:58.926Z,3.1
2018-12-14T13:18:07.853Z,3.3
2018-12-14T13:18:15.705Z,3.3
2018-12-14T13:18:23.525Z,3.3
2018-12-14T13:18:31.628Z,3.1
2018-12-14T13:18:39.444Z,2.9
2018-12-14T13:18:48.289Z,2.7
2018-12-14T13:18:57.888Z,2.7
2018-12-14T13:19:05.904Z,2.8
2018-12-14T13:19:13.785Z,2.9
2018-12-14T13:19:21.714Z,3
2018-12-14T13:19:29.568Z,3.1
2018-12-14T13:19:37.458Z,3.1
2018-12-14T13:19:46.341Z,3
2018-12-14T13:19:54.385Z,2.9
2018-12-14T13:20:02.287Z,3
2018-12-14T13:20:10.238Z,2.9
2018-12-14T13:20:18.095Z,3
2018-12-14T13:20:26.932Z,2.9
2018-12-14T13:20:34.751Z,2.8
2018-12-14T13:20:42.683Z,2.9
2018-12-14T13:20:50.503Z,3
2018-12-14T13:20:58.362Z,2.9
2018-12-14T13:21:07.237Z,2.8
2018-12-14T13:21:15.111Z,2.9
2018-12-14T13:21:22.994Z,2.7
2018-12-14T13:21:30.807Z,2.9
2018-12-14T13:21:38.648Z,2.9
2018-12-14T13:21:47.470Z,2.9
2018-12-14T13:21:55.526Z,2.8
2018-12-14T13:22:03.307Z,2.9
2018-12-14T13:22:11.203Z,2.9
2018-12-14T13:22:19.083Z,2.9
2018-12-14T13:22:26.914Z,2.9
2018-12-14T13:22:34.795Z,2.9
2018-12-14T13:22:42.624Z,3.2
2018-12-14T13:22:50.449Z,3.3
2018-12-14T13:22:58.339Z,3.2
2018-12-14T13:23:06.198Z,3.1
2018-12-14T13:23:15.007Z,2.9
2018-12-14T13:23:23.835Z,2.9
2018-12-14T13:23:31.719Z,3
2018-12-14T13:23:40.537Z,3.2
2018-12-14T13:23:49.174Z,3.3
2018-12-14T13:23:58.064Z,3.2
2018-12-14T13:24:05.971Z,3.2
2018-12-14T13:24:13.856Z,3.1
2018-12-14T13:24:22.608Z,3.1
2018-12-14T13:24:30.510Z,3.1
2018-12-14T13:24:38.343Z,3.2
2018-12-14T13:24:46.184Z,3.1
2018-12-14T13:24:58.686Z,3
2018-12-14T13:25:06.557Z,2.9
2018-12-14T13:25:14.355Z,2.7
2018-12-14T13:25:22.191Z,2.6
2018-12-14T13:25:30.833Z,2.5
2018-12-14T13:25:41.588Z,2.4
2018-12-14T13:25:50.384Z,2.6
2018-12-14T13:25:58.279Z,3
2018-12-14T13:26:06.162Z,3.1
2018-12-14T13:26:14.100Z,3.2
2018-12-14T13:26:21.944Z,3.1
2018-12-14T13:26:29.797Z,3
2018-12-14T13:26:37.676Z,3.1
2018-12-14T13:26:45.662Z,3
2018-12-14T13:26:53.549Z,2.9
2018-12-14T13:27:01.409Z,3.1
2018-12-14T13:27:09.278Z,3.3
2018-12-14T13:27:20.545Z,3.2
2018-12-14T13:27:27.932Z,3.1
2018-12-14T13:27:36.873Z,2.9
2018-12-14T13:27:44.725Z,2.9
2018-12-14T13:27:52.566Z,2.6
2018-12-14T13:28:00.516Z,2.9